RJBM weather

JMSDF Maizuru Heliport
Maizuru, Kyōto Prefecture, Japan

Public forecast

Using degrees Celsius for public forecast. Weather courtesy of forecast.io.

Closest aviation weather report (METAR) to JMSDF Maizuru Heliport

Closest report is Konotori Tajima Airport, 28.9 nm (53.5 km) W. Retrieved 2020/08/05 07:00 UTC (3 minutes ago):

RJBT 050700Z 36008KT 9999 FEW020 SCT/// 31/23 Q1015

Closest aviation forecast (TAF) to JMSDF Maizuru Heliport

Closest forecast is Osaka International Airport, 42.4 nm (78.6 km) S. Retrieved 2020/08/05 06:30 UTC (33 minutes ago):

TAF RJOO 050508Z 0506/0612 22006KT 9999 FEW030 BECMG 0512/0514 32005KT BECMG 0521/0600 22010KT